Time;durP1;ratioP1;P1;durP2;ratioP2;P2;SDS_P1;SDS_P2;PMS_P1;PMS_P2;Temp;Humidity;BMP_temperature;BMP_pressure;BME280_temperature;BME280_humidity;BME280_pressure;Samples;Min_cycle;Max_cycle;Signal;HPM_P1;HPM_P2
2023/04/06 00:02:16;;;;;;;1.63;0.75;;;;;;;7.61;52.68;101893.09;5011810;28;20018;-84
2023/04/06 00:04:44;;;;;;;0.17;0.17;;;;;;;7.65;52.08;101889.66;5015959;28;20037;-84
2023/04/06 00:07:10;;;;;;;0.75;0.75;;;;;;;7.69;52.19;101887.88;5012599;28;20086;-84
2023/04/06 00:09:36;;;;;;;0.10;0.10;;;;;;;7.74;52.32;101883.56;5015454;28;20588;-83
2023/04/06 00:12:02;;;;;;;0.20;0.20;;;;;;;7.76;52.59;101887.06;5013532;28;20026;-84
2023/04/06 00:14:28;;;;;;;0.10;0.10;;;;;;;7.78;52.32;101891.50;5010436;28;20497;-84
2023/04/06 00:16:54;;;;;;;0.20;0.20;;;;;;;7.81;52.07;101884.50;5006835;28;20580;-84
2023/04/06 00:19:20;;;;;;;0.30;0.30;;;;;;;7.82;50.98;101880.97;5009088;28;20022;-84
2023/04/06 00:21:46;;;;;;;0.20;0.20;;;;;;;7.83;51.42;101878.34;5008398;28;20034;-84
2023/04/06 00:24:12;;;;;;;1.63;1.25;;;;;;;7.81;51.06;101871.28;5008791;28;20037;-84
2023/04/06 00:26:39;;;;;;;0.30;0.30;;;;;;;7.82;51.02;101876.56;5003737;28;20041;-84
2023/04/06 00:29:05;;;;;;;0.15;0.15;;;;;;;7.87;51.63;101866.06;5011129;28;20038;-84
2023/04/06 00:31:31;;;;;;;0.82;0.82;;;;;;;7.89;51.29;101864.34;5008611;28;20491;-84
2023/04/06 00:33:57;;;;;;;1.20;1.13;;;;;;;7.94;51.03;101862.63;5011793;28;20034;-84
2023/04/06 00:36:23;;;;;;;0.25;0.25;;;;;;;7.97;50.55;101859.97;5010435;28;20112;-84
2023/04/06 00:38:49;;;;;;;0.10;0.10;;;;;;;7.97;50.63;101862.63;5007225;28;20056;-84
2023/04/06 00:41:15;;;;;;;0.40;0.40;;;;;;;7.98;51.00;101848.56;5007156;28;20048;-84
2023/04/06 00:43:41;;;;;;;0.10;0.10;;;;;;;7.98;50.59;101851.19;5010343;28;20050;-83
2023/04/06 00:46:08;;;;;;;0.60;0.57;;;;;;;7.98;50.13;101843.28;5014544;28;20045;-84
2023/04/06 00:48:34;;;;;;;0.57;0.55;;;;;;;8.00;50.24;101846.81;5010717;28;20140;-84
2023/04/06 00:51:01;;;;;;;0.10;0.10;;;;;;;7.96;50.55;101838.88;5011215;28;20052;-83
2023/04/06 00:53:27;;;;;;;0.10;0.10;;;;;;;7.92;50.32;101836.22;5015729;28;20489;-83
2023/04/06 00:55:53;;;;;;;0.40;0.40;;;;;;;7.89;50.56;101835.31;5015952;28;20034;-83
2023/04/06 00:58:19;;;;;;;0.35;0.35;;;;;;;7.86;50.48;101830.91;5009480;28;20050;-84
2023/04/06 01:00:45;;;;;;;0.30;0.30;;;;;;;7.85;50.01;101828.22;5014351;28;20504;-84
2023/04/06 01:03:11;;;;;;;0.15;0.15;;;;;;;7.89;50.35;101824.75;5009473;28;20034;-84
2023/04/06 01:05:40;;;;;;;3.00;2.75;;;;;;;7.86;50.14;101827.34;5017772;28;20040;-84
2023/04/06 01:08:07;;;;;;;0.10;0.10;;;;;;;7.85;49.99;101817.66;5017542;28;20120;-83
2023/04/06 01:10:33;;;;;;;0.20;0.20;;;;;;;7.88;50.91;101818.56;5011068;28;20034;-83
2023/04/06 01:12:59;;;;;;;0.13;0.13;;;;;;;7.88;50.88;101812.44;5008402;28;20181;-83
2023/04/06 01:15:27;;;;;;;0.20;0.20;;;;;;;7.86;50.84;101811.53;5012127;28;20075;-84
2023/04/06 01:17:53;;;;;;;0.10;0.10;;;;;;;7.81;50.98;101811.47;5011836;28;20117;-84
2023/04/06 01:20:19;;;;;;;0.10;0.10;;;;;;;7.80;51.04;101808.84;5007577;28;20599;-84
2023/04/06 01:22:45;;;;;;;0.10;0.10;;;;;;;7.78;50.93;101807.06;5014832;28;20141;-84
2023/04/06 01:25:11;;;;;;;0.40;0.40;;;;;;;7.76;50.79;101800.91;5005936;28;20065;-84
2023/04/06 01:27:37;;;;;;;0.10;0.10;;;;;;;7.72;51.05;101801.75;5010329;28;20041;-83
2023/04/06 01:30:05;;;;;;;0.10;0.10;;;;;;;7.72;50.86;101801.75;5007931;28;20042;-84
2023/04/06 01:32:31;;;;;;;0.10;0.10;;;;;;;7.69;51.02;101798.19;5013822;28;20584;-84
2023/04/06 01:34:57;;;;;;;0.10;0.10;;;;;;;7.67;50.89;101792.91;5011938;28;20090;-84
2023/04/06 01:37:23;;;;;;;0.10;0.10;;;;;;;7.64;51.06;101787.63;5006535;28;20061;-83
2023/04/06 01:39:49;;;;;;;0.10;0.10;;;;;;;7.62;51.53;101794.66;5013217;28;20085;-84
2023/04/06 01:42:16;;;;;;;0.68;0.68;;;;;;;7.62;51.40;101781.47;5010756;28;20034;-84
2023/04/06 01:44:42;;;;;;;0.10;0.10;;;;;;;7.59;51.26;101773.53;5010094;28;20112;-83
2023/04/06 01:47:08;;;;;;;0.68;0.68;;;;;;;7.54;51.51;101775.22;5005852;28;20038;-83
2023/04/06 01:49:34;;;;;;;0.10;0.10;;;;;;;7.52;51.41;101774.38;5011842;28;20077;-84
2023/04/06 01:52:00;;;;;;;0.40;0.40;;;;;;;7.48;51.54;101772.53;5010092;28;20034;-83
2023/04/06 01:54:26;;;;;;;0.10;0.10;;;;;;;7.48;51.40;101764.63;5008893;28;20033;-83
2023/04/06 01:56:52;;;;;;;0.10;0.10;;;;;;;7.45;51.32;101771.69;5009417;28;20149;-83
2023/04/06 01:59:18;;;;;;;0.43;0.43;;;;;;;7.39;51.93;101768.09;5013651;28;20057;-83
2023/04/06 02:01:45;;;;;;;0.25;0.25;;;;;;;7.37;51.72;101767.22;5006724;28;20026;-84
2023/04/06 02:04:11;;;;;;;0.65;0.65;;;;;;;7.35;51.24;101763.66;5006939;28;20025;-84
2023/04/06 02:06:37;;;;;;;0.20;0.20;;;;;;;7.38;51.46;101759.31;5015152;28;20033;-84
2023/04/06 02:09:03;;;;;;;0.20;0.20;;;;;;;7.37;51.78;101757.53;5011432;28;20060;-84
2023/04/06 02:11:30;;;;;;;0.20;0.20;;;;;;;7.48;51.80;101764.63;5012964;28;20092;-83
2023/04/06 02:13:56;;;;;;;0.10;0.10;;;;;;;7.51;51.02;101751.50;5001234;28;20078;-84
2023/04/06 02:16:22;;;;;;;0.20;0.20;;;;;;;7.47;51.38;101747.06;5013337;28;20038;-84
2023/04/06 02:18:50;;;;;;;0.10;0.10;;;;;;;7.47;51.53;101749.72;5009568;28;20088;-84
2023/04/06 02:21:19;;;;;;;0.38;0.32;;;;;;;7.53;51.34;101747.13;5005513;28;20045;-83
2023/04/06 02:23:46;;;;;;;0.10;0.10;;;;;;;7.56;51.50;101739.22;5011406;28;20034;-84
2023/04/06 02:26:13;;;;;;;0.10;0.10;;;;;;;7.57;51.06;101739.22;5015356;28;20033;-84
2023/04/06 02:28:39;;;;;;;0.73;0.73;;;;;;;7.59;51.27;101742.75;5010730;28;20030;-83
2023/04/06 02:31:05;;;;;;;0.10;0.10;;;;;;;7.63;51.43;101737.50;5005930;28;20030;-84
2023/04/06 02:33:31;;;;;;;0.10;0.10;;;;;;;7.63;51.65;101730.47;5009720;28;20038;-84
2023/04/06 02:35:57;;;;;;;0.57;0.57;;;;;;;7.63;51.16;101727.84;5012556;28;20029;-84
2023/04/06 02:38:23;;;;;;;0.10;0.10;;;;;;;7.65;50.93;101725.22;5008040;28;20042;-83
2023/04/06 02:40:49;;;;;;;0.10;0.10;;;;;;;7.66;51.56;101726.97;5012079;28;20037;-84
2023/04/06 02:43:16;;;;;;;0.80;0.80;;;;;;;7.65;51.54;101733.13;5014666;28;20034;-83
2023/04/06 02:45:42;;;;;;;0.10;0.10;;;;;;;7.65;51.49;101720.84;5002182;28;20053;-83
2023/04/06 02:48:09;;;;;;;0.10;0.10;;;;;;;7.68;51.56;101718.19;5004302;28;20490;-83
2023/04/06 02:50:35;;;;;;;0.10;0.10;;;;;;;7.69;51.91;101717.34;5009235;28;20232;-84
2023/04/06 02:53:01;;;;;;;0.10;0.10;;;;;;;7.70;52.24;101712.94;5007776;28;20033;-84
2023/04/06 02:55:27;;;;;;;0.35;0.35;;;;;;;7.72;51.49;101709.41;5003051;28;20030;-84
2023/04/06 02:57:53;;;;;;;0.10;0.10;;;;;;;7.70;51.60;101713.81;5007323;28;20501;-84
2023/04/06 03:00:19;;;;;;;0.17;0.17;;;;;;;7.71;52.13;101704.16;5007735;28;20091;-83
2023/04/06 03:02:45;;;;;;;0.20;0.20;;;;;;;7.73;51.85;101707.69;5013491;28;20042;-84
2023/04/06 03:05:11;;;;;;;0.22;0.22;;;;;;;7.76;51.66;101700.66;5014331;28;20022;-84
2023/04/06 03:07:37;;;;;;;0.30;0.30;;;;;;;7.77;51.63;101697.13;5004946;28;20057;-83
2023/04/06 03:10:03;;;;;;;0.10;0.10;;;;;;;7.80;51.80;101690.13;5012133;28;20113;-83
2023/04/06 03:12:29;;;;;;;0.95;0.95;;;;;;;7.79;51.77;101697.16;5013823;28;20493;-84
2023/04/06 03:14:55;;;;;;;0.10;0.10;;;;;;;7.80;51.96;101695.41;5011508;28;20105;-84
2023/04/06 03:17:21;;;;;;;1.42;1.33;;;;;;;7.80;52.26;101687.47;5008579;28;20031;-83
2023/04/06 03:19:48;;;;;;;4.57;2.15;;;;;;;7.80;51.97;101695.41;5009817;28;20051;-84
2023/04/06 03:22:14;;;;;;;0.43;0.43;;;;;;;7.78;52.25;101691.00;5007944;28;20025;-84
2023/04/06 03:24:40;;;;;;;0.32;0.32;;;;;;;7.76;52.05;101689.22;5005208;28;20022;-84
2023/04/06 03:27:06;;;;;;;0.20;0.20;;;;;;;7.76;52.44;101687.47;5011761;28;20034;-83
2023/04/06 03:29:32;;;;;;;0.10;0.10;;;;;;;7.77;52.66;101683.94;5006659;28;20026;-83
2023/04/06 03:32:00;;;;;;;0.30;0.30;;;;;;;7.80;52.08;101687.47;5010431;28;20049;-84
2023/04/06 03:34:27;;;;;;;0.38;0.38;;;;;;;7.80;52.60;101674.28;5014117;28;20040;-84
2023/04/06 03:36:53;;;;;;;0.32;0.32;;;;;;;7.80;52.69;101674.28;5008201;28;20034;-84
2023/04/06 03:39:19;;;;;;;0.10;0.10;;;;;;;7.76;52.95;101679.56;5010567;28;20028;-83
2023/04/06 03:41:45;;;;;;;0.30;0.30;;;;;;;7.78;52.26;101674.28;5011320;28;20033;-84
2023/04/06 03:44:11;;;;;;;0.82;0.82;;;;;;;7.77;52.52;101672.53;5014871;28;20112;-83
2023/04/06 03:46:37;;;;;;;0.10;0.10;;;;;;;7.78;52.84;101683.06;5005679;28;20073;-83
2023/04/06 03:49:03;;;;;;;0.25;0.25;;;;;;;7.78;52.87;101674.28;5005473;28;20030;-83
2023/04/06 03:51:29;;;;;;;0.17;0.17;;;;;;;7.75;52.47;101669.88;5005523;28;20068;-84
2023/04/06 03:53:55;;;;;;;0.20;0.20;;;;;;;7.80;52.89;101671.66;5009179;28;20057;-84
2023/04/06 03:56:21;;;;;;;0.10;0.10;;;;;;;7.81;52.42;101663.75;5006714;28;20033;-84
2023/04/06 03:58:50;;;;;;;0.10;0.10;;;;;;;7.81;53.08;101665.50;5011446;28;20033;-84
2023/04/06 04:01:17;;;;;;;0.20;0.20;;;;;;;7.83;52.48;101666.41;5013617;28;20029;-83
2023/04/06 04:03:43;;;;;;;0.10;0.10;;;;;;;7.82;52.89;101660.22;5008749;28;20072;-83
2023/04/06 04:06:09;;;;;;;0.10;0.10;;;;;;;7.84;52.95;101670.78;5004175;28;20026;-83
2023/04/06 04:08:35;;;;;;;0.10;0.10;;;;;;;7.83;53.17;101667.28;5004555;28;20030;-83
2023/04/06 04:11:02;;;;;;;0.10;0.10;;;;;;;7.77;52.66;101662.84;5011458;28;20042;-85
2023/04/06 04:13:28;;;;;;;0.35;0.35;;;;;;;7.80;52.81;101661.09;5009987;28;20088;-83
2023/04/06 04:15:54;;;;;;;0.20;0.20;;;;;;;7.83;53.16;101663.78;5014785;28;20034;-83
2023/04/06 04:18:20;;;;;;;0.10;0.10;;;;;;;7.78;52.85;101661.09;5004948;28;20061;-83
2023/04/06 04:20:46;;;;;;;0.10;0.10;;;;;;;7.82;53.38;101656.72;5013269;28;20059;-83
2023/04/06 04:23:12;;;;;;;0.10;0.10;;;;;;;7.84;53.36;101661.13;5004531;28;20484;-84
2023/04/06 04:25:38;;;;;;;0.20;0.20;;;;;;;7.81;53.82;101663.75;5009413;28;20030;-84
2023/04/06 04:28:04;;;;;;;0.13;0.13;;;;;;;7.82;53.95;101665.50;5014023;28;20041;-84
2023/04/06 04:30:30;;;;;;;0.57;0.57;;;;;;;7.84;53.88;101661.13;5005161;28;20034;-83
2023/04/06 04:32:56;;;;;;;0.10;0.10;;;;;;;7.85;53.92;101660.25;5013005;28;20029;-83
2023/04/06 04:35:22;;;;;;;2.42;2.08;;;;;;;7.84;53.85;101660.22;5011205;28;20121;-83
2023/04/06 04:37:49;;;;;;;0.20;0.20;;;;;;;7.86;53.84;101658.50;5006270;28;20383;-84
2023/04/06 04:40:16;;;;;;;0.30;0.30;;;;;;;7.88;53.65;101654.13;5011950;28;20022;-84
2023/04/06 04:42:43;;;;;;;0.63;0.63;;;;;;;7.89;54.22;101672.59;5014316;28;20449;-84
2023/04/06 04:45:10;;;;;;;0.20;0.20;;;;;;;7.87;54.57;101658.50;5014450;28;20021;-84
2023/04/06 04:47:36;;;;;;;1.20;1.20;;;;;;;7.92;54.22;101650.59;5005813;28;20038;-83
2023/04/06 04:50:02;;;;;;;0.55;0.55;;;;;;;7.93;54.22;101652.38;5000940;28;20121;-84
2023/04/06 04:52:28;;;;;;;0.30;0.30;;;;;;;7.94;53.60;101654.13;5008525;28;20044;-83
2023/04/06 04:54:54;;;;;;;0.20;0.20;;;;;;;7.94;53.51;101654.13;5012410;28;20397;-84
2023/04/06 04:57:20;;;;;;;0.20;0.20;;;;;;;7.97;53.91;101648.00;5011753;28;20046;-84
2023/04/06 04:59:46;;;;;;;0.20;0.20;;;;;;;7.99;54.24;101647.13;5002931;28;20027;-84
2023/04/06 05:02:12;;;;;;;0.10;0.10;;;;;;;8.00;53.62;101651.53;4999912;28;20037;-84
2023/04/06 05:04:38;;;;;;;0.10;0.10;;;;;;;8.03;53.77;101658.56;5002365;28;20402;-83
2023/04/06 05:07:05;;;;;;;0.15;0.15;;;;;;;8.08;53.32;101651.53;5007400;28;20037;-84
2023/04/06 05:09:31;;;;;;;0.10;0.10;;;;;;;8.10;53.11;101650.66;5003931;28;20529;-84
2023/04/06 05:11:58;;;;;;;0.43;0.43;;;;;;;8.12;53.40;101652.44;5007975;28;20265;-84
2023/04/06 05:14:24;;;;;;;0.13;0.13;;;;;;;8.13;53.03;101648.94;5013734;28;20113;-84
2023/04/06 05:16:50;;;;;;;0.13;0.13;;;;;;;8.16;52.87;101648.91;5012455;28;20277;-84
2023/04/06 05:19:16;;;;;;;0.15;0.15;;;;;;;8.15;53.17;101649.78;5015080;28;20037;-84
2023/04/06 05:21:42;;;;;;;1.55;0.90;;;;;;;8.15;52.89;101648.06;5010082;28;20456;-84
2023/04/06 05:24:08;;;;;;;3.25;0.75;;;;;;;8.19;52.98;101648.94;5006849;28;20037;-84
2023/04/06 05:26:35;;;;;;;0.10;0.10;;;;;;;8.21;53.25;101652.44;5002142;28;20176;-84
2023/04/06 05:29:01;;;;;;;0.35;0.35;;;;;;;8.23;53.53;101641.00;5000513;28;20101;-84
2023/04/06 05:31:27;;;;;;;0.20;0.20;;;;;;;8.29;53.29;101640.16;5008987;28;20117;-84
2023/04/06 05:33:53;;;;;;;0.35;0.35;;;;;;;8.33;52.79;101647.19;5006995;28;20046;-84
2023/04/06 05:36:20;;;;;;;0.10;0.10;;;;;;;8.41;53.07;101648.13;5007564;28;20049;-84
2023/04/06 05:38:46;;;;;;;0.20;0.20;;;;;;;8.46;52.90;101641.94;5002456;28;20535;-84
2023/04/06 05:41:12;;;;;;;0.10;0.10;;;;;;;8.50;52.99;101644.63;5008685;28;20362;-84
2023/04/06 05:43:38;;;;;;;0.35;0.35;;;;;;;8.56;52.50;101642.00;5004666;28;20092;-84
2023/04/06 05:46:04;;;;;;;0.93;0.88;;;;;;;8.62;52.70;101643.75;5005598;28;20532;-84
2023/04/06 05:48:30;;;;;;;0.30;0.30;;;;;;;8.67;52.96;101647.31;5007443;28;20033;-83
2023/04/06 05:50:56;;;;;;;0.10;0.10;;;;;;;8.71;52.83;101649.06;5000245;28;20038;-84
2023/04/06 05:53:22;;;;;;;0.52;0.52;;;;;;;8.77;53.00;101632.31;5009746;28;20041;-84
2023/04/06 05:55:48;;;;;;;0.77;0.77;;;;;;;8.78;53.22;101633.22;5007047;28;20033;-84
2023/04/06 05:58:14;;;;;;;1.17;1.17;;;;;;;8.82;53.31;101648.19;5031783;28;20097;-84
2023/04/06 06:00:42;;;;;;;0.32;0.32;;;;;;;8.81;53.66;101634.09;5015990;28;20018;-83
2023/04/06 06:03:08;;;;;;;0.10;0.10;;;;;;;8.84;53.15;101644.66;5009614;28;20108;-84
2023/04/06 06:05:34;;;;;;;0.20;0.20;;;;;;;8.84;53.50;101633.22;5010738;28;20532;-84
2023/04/06 06:08:01;;;;;;;0.57;0.57;;;;;;;8.83;53.63;101636.72;5007264;28;20036;-84
2023/04/06 06:10:28;;;;;;;0.35;0.35;;;;;;;8.85;53.85;101637.63;5006506;28;20057;-84
2023/04/06 06:12:54;;;;;;;0.10;0.10;;;;;;;8.86;53.99;101636.72;4999928;28;20030;-83
2023/04/06 06:15:20;;;;;;;1.20;1.10;;;;;;;8.89;53.87;101639.38;5006654;28;20038;-83
2023/04/06 06:17:46;;;;;;;0.30;0.30;;;;;;;8.89;53.80;101636.72;5005111;28;20022;-83
2023/04/06 06:20:12;;;;;;;0.10;0.10;;;;;;;8.86;54.01;101634.06;4999730;28;20022;-84
2023/04/06 06:22:40;;;;;;;0.63;0.63;;;;;;;8.90;53.81;101638.50;5008068;28;20026;-84
2023/04/06 06:25:06;;;;;;;3.03;1.20;;;;;;;8.93;53.76;101632.34;5006335;28;20026;-83
2023/04/06 06:27:32;;;;;;;0.10;0.10;;;;;;;8.93;53.97;101632.34;5014787;28;20493;-84
2023/04/06 06:29:58;;;;;;;0.52;0.52;;;;;;;8.99;54.05;101637.63;5015569;28;20029;-87
2023/04/06 06:32:24;;;;;;;0.10;0.10;;;;;;;9.02;53.64;101633.22;5011686;28;20038;-82
2023/04/06 06:34:50;;;;;;;0.35;0.35;;;;;;;9.09;53.98;101633.22;5009345;28;20030;-83
2023/04/06 06:37:16;;;;;;;0.47;0.47;;;;;;;9.15;53.62;101634.06;5013456;28;20033;-83
2023/04/06 06:39:42;;;;;;;0.10;0.10;;;;;;;9.18;53.98;101641.09;5006057;28;20026;-83
2023/04/06 06:42:08;;;;;;;0.10;0.10;;;;;;;9.21;53.39;101641.13;5017529;28;20033;-83
2023/04/06 06:44:34;;;;;;;0.22;0.22;;;;;;;9.25;53.68;101637.59;5010168;28;20434;-83
2023/04/06 06:47:06;;;;;;;0.10;0.10;;;;;;;9.29;53.73;101635.81;5015509;28;20030;-84
2023/04/06 06:49:32;;;;;;;0.68;0.68;;;;;;;9.30;53.21;101633.16;5013315;28;20034;-82
2023/04/06 06:51:59;;;;;;;0.10;0.10;;;;;;;9.34;53.05;101634.91;5012551;28;20100;-83
2023/04/06 06:54:25;;;;;;;2.05;0.82;;;;;;;9.39;53.48;101633.16;5006908;28;20568;-83
2023/04/06 06:56:51;;;;;;;0.22;0.22;;;;;;;9.38;53.31;101626.09;5014717;28;20033;-84
2023/04/06 06:59:17;;;;;;;0.10;0.10;;;;;;;9.47;53.17;101629.59;5010980;28;20013;-83
2023/04/06 07:01:43;;;;;;;0.22;0.22;;;;;;;9.55;53.39;101620.75;5016280;28;20045;-82
2023/04/06 07:04:09;;;;;;;0.90;0.77;;;;;;;9.62;53.27;101624.25;5009089;28;20037;-82
2023/04/06 07:06:38;;;;;;;1.45;1.00;;;;;;;9.70;53.02;101616.28;5014868;28;20092;-83
2023/04/06 07:09:04;;;;;;;0.10;0.10;;;;;;;9.77;53.39;101623.31;5000203;28;20034;-83
2023/04/06 07:11:31;;;;;;;1.20;1.10;;;;;;;9.77;52.69;101618.03;5004752;28;20109;-82
2023/04/06 07:13:56;;;;;;;0.10;0.10;;;;;;;9.89;52.83;101617.09;5010293;28;20030;-82
2023/04/06 07:16:23;;;;;;;0.10;0.10;;;;;;;9.99;52.88;101624.13;5012869;28;20052;-83
2023/04/06 07:18:49;;;;;;;0.20;0.20;;;;;;;10.03;52.58;101625.84;5008553;28;20587;-82
2023/04/06 07:21:15;;;;;;;0.10;0.10;;;;;;;10.16;52.24;101609.91;5009722;28;20022;-83
2023/04/06 07:23:41;;;;;;;0.10;0.10;;;;;;;10.23;52.84;101616.91;5014785;28;20061;-83
2023/04/06 07:26:07;;;;;;;0.90;0.90;;;;;;;10.26;53.71;101619.53;5008095;28;20059;-83
2023/04/06 07:28:33;;;;;;;0.47;0.47;;;;;;;10.35;53.54;101615.94;5011969;28;20123;-84
2023/04/06 07:31:00;;;;;;;14.70;1.95;;;;;;;10.43;53.51;101610.63;5018585;28;20050;-84
2023/04/06 07:33:29;;;;;;;0.25;0.25;;;;;;;10.52;53.73;101608.78;5020511;28;20068;-83
2023/04/06 07:35:56;;;;;;;0.10;0.10;;;;;;;10.57;53.49;101608.75;5018263;28;20029;-84
2023/04/06 07:38:22;;;;;;;0.10;0.10;;;;;;;10.68;53.33;101608.69;5018175;28;20026;-85
2023/04/06 07:40:48;;;;;;;0.10;0.10;;;;;;;10.76;52.87;101600.66;5014225;28;20117;-84
2023/04/06 07:43:15;;;;;;;0.10;0.10;;;;;;;10.80;52.27;101602.38;5022878;28;20532;-85
2023/04/06 07:45:41;;;;;;;4.90;1.20;;;;;;;10.88;51.65;101605.84;5019054;28;20026;-86
2023/04/06 07:48:07;;;;;;;0.75;0.75;;;;;;;10.94;51.88;101605.81;5005685;28;20050;-84
2023/04/06 07:50:33;;;;;;;0.10;0.10;;;;;;;11.03;51.56;101598.63;4999756;28;20026;-84
2023/04/06 07:53:00;;;;;;;0.20;0.20;;;;;;;11.10;50.94;101600.34;5011035;28;20032;-85
2023/04/06 07:55:26;;;;;;;0.25;0.25;;;;;;;11.17;51.68;101600.25;5017065;28;20037;-84
2023/04/06 07:57:52;;;;;;;0.82;0.82;;;;;;;11.22;51.41;101602.00;5014385;28;20034;-84
2023/04/06 08:00:18;;;;;;;0.20;0.20;;;;;;;11.23;51.23;101601.97;5019634;28;20100;-84
2023/04/06 08:02:44;;;;;;;1.08;0.50;;;;;;;11.29;51.23;101604.56;5019184;28;20421;-84
2023/04/06 08:05:10;;;;;;;2.20;1.33;;;;;;;11.39;51.84;101607.09;5019116;28;20413;-84
2023/04/06 08:07:36;;;;;;;0.30;0.30;;;;;;;11.39;51.44;101599.16;5012022;28;20041;-85
2023/04/06 08:10:03;;;;;;;0.10;0.10;;;;;;;11.47;51.75;101608.78;5008529;28;20030;-84
2023/04/06 08:12:29;;;;;;;0.32;0.32;;;;;;;11.50;51.76;101605.19;5009766;28;20064;-84
2023/04/06 08:14:56;;;;;;;1.98;1.90;;;;;;;11.57;52.25;101606.03;5009050;28;20034;-84
2023/04/06 08:17:22;;;;;;;0.75;0.75;;;;;;;11.62;51.49;101602.41;5004083;28;20034;-84
2023/04/06 08:19:49;;;;;;;0.82;0.82;;;;;;;11.65;51.24;101599.72;5014189;28;20028;-84
2023/04/06 08:22:15;;;;;;;0.35;0.35;;;;;;;11.73;52.21;101601.41;5003264;28;20031;-84
2023/04/06 08:24:41;;;;;;;0.00;0.00;;;;;;;11.81;52.01;101599.53;5003274;28;20127;-87
2023/04/06 08:27:07;;;;;;;0.10;0.10;;;;;;;11.82;51.24;101607.50;5003795;28;20484;-84
2023/04/06 08:29:33;;;;;;;0.85;0.85;;;;;;;11.73;51.57;101609.38;5009944;28;20481;-84
2023/04/06 08:32:00;;;;;;;2.38;2.28;;;;;;;11.79;51.68;101617.28;5006307;28;20046;-83
2023/04/06 08:34:26;;;;;;;0.20;0.20;;;;;;;11.77;52.64;101609.31;5002986;28;20041;-83
2023/04/06 08:36:52;;;;;;;0.70;0.70;;;;;;;11.84;52.61;101615.44;5012067;28;20109;-84
2023/04/06 08:39:24;;;;;;;1.23;1.23;;;;;;;11.83;53.10;101611.00;5012287;28;20500;-85
2023/04/06 08:41:52;;;;;;;0.25;0.25;;;;;;;11.89;53.89;101605.63;5014449;28;20033;-85
2023/04/06 08:44:19;;;;;;;1.25;1.20;;;;;;;11.90;53.35;101604.72;5009979;28;20057;-84
2023/04/06 08:46:45;;;;;;;0.10;0.10;;;;;;;11.94;53.78;101611.75;5005937;28;20061;-84
2023/04/06 08:49:12;;;;;;;0.88;0.88;;;;;;;11.93;54.10;101609.97;4999004;28;20030;-83
2023/04/06 08:51:38;;;;;;;2.08;1.95;;;;;;;11.91;54.93;101614.47;5003012;28;20304;-83
2023/04/06 08:54:05;;;;;;;3.58;1.45;;;;;;;11.96;55.25;101606.44;5015392;28;20404;-83
2023/04/06 08:56:31;;;;;;;1.25;1.25;;;;;;;11.97;55.77;101611.75;5005767;28;20039;-83
2023/04/06 08:58:58;;;;;;;0.10;0.10;;;;;;;11.97;55.93;101603.78;5016483;28;20045;-84
2023/04/06 09:01:26;;;;;;;1.50;1.10;;;;;;;12.07;56.97;101611.63;5020946;28;20100;-84
2023/04/06 09:04:04;;;;;;;2.55;1.50;;;;;;;11.97;56.01;101617.06;5017202;28;20026;-85
2023/04/06 09:06:31;;;;;;;0.10;0.10;;;;;;;11.94;56.11;101617.06;5015072;28;20032;-84
2023/04/06 09:08:57;;;;;;;0.40;0.40;;;;;;;12.04;56.14;101607.22;5004812;28;20021;-86
2023/04/06 09:11:24;;;;;;;0.88;0.88;;;;;;;12.02;56.01;101602.84;5006129;28;20026;-84
2023/04/06 09:13:51;;;;;;;0.28;0.28;;;;;;;12.13;56.71;101611.53;5010861;28;20591;-84
2023/04/06 09:16:18;;;;;;;1.75;1.65;;;;;;;12.23;55.59;101602.50;5007356;28;20030;-85
2023/04/06 09:18:45;;;;;;;0.22;0.22;;;;;;;12.40;55.72;101598.72;5008158;28;20544;-85
2023/04/06 09:21:12;;;;;;;2.25;2.05;;;;;;;12.48;54.98;101599.50;5017412;28;20045;-84
2023/04/06 09:23:38;;;;;;;0.55;0.40;;;;;;;12.48;53.85;101595.97;5016682;28;20042;-85
2023/04/06 09:26:17;;;;;;;0.22;0.22;;;;;;;12.54;52.38;101595.88;5013708;28;20034;-84
2023/04/06 09:28:52;;;;;;;0.85;0.40;;;;;;;12.67;53.94;101592.09;5012568;28;20160;-84
2023/04/06 09:31:30;;;;;;;0.10;0.10;;;;;;;12.82;53.23;101593.59;5012063;28;20637;-84
2023/04/06 09:33:57;;;;;;;2.08;0.88;;;;;;;12.74;52.89;101593.75;5015880;28;20037;-84
2023/04/06 09:36:33;;;;;;;0.50;0.50;;;;;;;12.79;53.04;101601.66;5019964;28;20040;-84
2023/04/06 09:39:04;;;;;;;0.40;0.40;;;;;;;12.71;53.81;101593.81;5008006;28;20040;-84
2023/04/06 09:41:33;;;;;;;0.10;0.10;;;;;;;12.50;53.79;101597.69;5007636;28;20026;-84
2023/04/06 09:44:07;;;;;;;0.47;0.40;;;;;;;12.65;54.85;101588.59;5009013;28;20551;-84
2023/04/06 09:46:35;;;;;;;0.40;0.40;;;;;;;12.56;55.42;101589.63;5018514;28;20037;-83
2023/04/06 09:49:05;;;;;;;0.10;0.10;;;;;;;12.60;55.85;101585.13;5012968;28;20519;-84
2023/04/06 09:51:36;;;;;;;0.10;0.10;;;;;;;12.46;55.13;101588.00;5006291;28;20098;-84
2023/04/06 09:54:04;;;;;;;0.15;0.15;;;;;;;12.42;55.68;101586.28;5003826;28;20027;-84
2023/04/06 09:57:02;;;;;;;0.15;0.15;;;;;;;12.48;55.86;101577.34;5008571;28;20153;-84
2023/04/06 10:00:03;;;;;;;0.10;0.10;;;;;;;12.40;56.89;101582.78;5005921;28;20034;-84
2023/04/06 10:02:53;;;;;;;0.10;0.10;;;;;;;12.25;57.09;101583.88;5013314;28;20029;-84
2023/04/06 10:05:31;;;;;;;0.20;0.20;;;;;;;12.25;57.53;101589.19;5016204;28;20066;-84
2023/04/06 10:08:02;;;;;;;0.25;0.25;;;;;;;12.20;57.32;101583.97;5010441;28;20053;-84
2023/04/06 10:10:30;;;;;;;0.10;0.10;;;;;;;12.23;58.78;101585.72;5015692;28;20139;-85
2023/04/06 10:12:57;;;;;;;0.47;0.47;;;;;;;12.12;58.32;101586.75;5012828;28;20056;-84
2023/04/06 10:15:24;;;;;;;4.13;2.70;;;;;;;12.16;58.58;101579.59;5005813;28;20161;-84
2023/04/06 10:17:50;;;;;;;3.10;2.58;;;;;;;12.18;59.04;101580.47;5005691;28;20037;-84
2023/04/06 10:20:40;;;;;;;0.65;0.65;;;;;;;12.21;60.17;101580.44;5009576;28;20033;-84
2023/04/06 10:23:15;;;;;;;0.60;0.60;;;;;;;12.27;59.00;101577.69;5013885;28;20054;-85
2023/04/06 10:25:56;;;;;;;1.30;0.60;;;;;;;12.22;58.83;101578.63;5011672;28;20040;-85
2023/04/06 10:28:22;;;;;;;1.80;1.70;;;;;;;12.16;60.77;101578.72;5012286;28;20030;-85
2023/04/06 10:30:49;;;;;;;0.08;0.08;;;;;;;12.19;60.79;101570.72;5008954;28;20038;-84
2023/04/06 10:33:20;;;;;;;0.20;0.20;;;;;;;12.13;61.34;101571.69;5016474;28;20026;-84
2023/04/06 10:35:46;;;;;;;0.10;0.10;;;;;;;12.00;61.69;101572.75;5001996;28;20061;-84
2023/04/06 10:40:46;;;;;;;0.95;0.95;;;;;;;11.89;61.87;101564.94;5062994;28;20052;-85
2023/04/06 10:43:24;;;;;;;0.10;0.10;;;;;;;11.94;61.75;101563.94;5064263;28;20373;-86
2023/04/06 10:45:57;;;;;;;0.15;0.15;;;;;;;11.93;62.04;101564.84;5065701;28;20029;-86
2023/04/06 10:48:25;;;;;;;0.75;0.75;;;;;;;11.79;62.85;101564.16;5065668;28;20111;-82
2023/04/06 10:50:52;;;;;;;0.17;0.17;;;;;;;11.85;63.67;101556.13;5062715;28;20032;-84
2023/04/06 10:53:25;;;;;;;0.10;0.10;;;;;;;11.92;63.36;101559.56;5063040;28;20047;-85
2023/04/06 10:55:55;;;;;;;0.28;0.28;;;;;;;11.78;63.18;101555.31;5056698;28;20036;-85
2023/04/06 10:58:24;;;;;;;0.20;0.20;;;;;;;11.75;63.15;101551.81;5060090;28;20028;-85
2023/04/06 11:00:50;;;;;;;0.10;0.10;;;;;;;11.74;62.99;101544.75;5049931;28;20054;-85
2023/04/06 11:03:17;;;;;;;0.20;0.20;;;;;;;11.60;63.69;101537.88;5072708;28;20520;-85
2023/04/06 11:05:48;;;;;;;3.03;0.57;;;;;;;11.58;64.04;101539.66;5071563;28;20021;-85
2023/04/06 11:08:32;;;;;;;0.10;0.10;;;;;;;11.64;64.42;101539.56;5056631;28;20480;-85
2023/04/06 11:11:15;;;;;;;0.10;0.10;;;;;;;11.56;64.57;101541.44;5070895;28;20021;-85
2023/04/06 11:13:54;;;;;;;0.10;0.10;;;;;;;11.68;64.88;101537.75;5062992;28;20550;-84
2023/04/06 11:16:22;;;;;;;0.28;0.28;;;;;;;11.64;65.52;101534.25;5062690;28;20051;-84
2023/04/06 11:18:59;;;;;;;0.40;0.40;;;;;;;11.72;65.15;101526.19;5053774;28;20025;-85
2023/04/06 11:21:48;;;;;;;0.00;0.00;;;;;;;11.69;64.47;101530.66;5060675;28;20399;-85
2023/04/06 11:24:15;;;;;;;0.10;0.10;;;;;;;11.63;64.84;101531.63;5061295;28;20021;-85
2023/04/06 11:26:48;;;;;;;0.05;0.05;;;;;;;11.57;65.01;101527.28;5063208;28;20037;-84
2023/04/06 11:29:16;;;;;;;0.77;0.77;;;;;;;11.56;65.76;101524.66;5047605;28;20029;-85
2023/04/06 11:31:47;;;;;;;0.10;0.10;;;;;;;11.56;65.96;101517.53;5059324;28;20032;-85
2023/04/06 11:34:26;;;;;;;0.57;0.57;;;;;;;11.47;65.90;101515.91;5061366;28;20025;-84